createdAt,value
2023-03-29T00:00:27.083Z,6.8179
2023-03-29T00:01:35.965Z,6.8172
2023-03-29T00:02:33.708Z,6.7130
2023-03-29T00:03:36.399Z,6.5826
2023-03-29T00:05:41.232Z,6.4071
2023-03-29T00:06:43.791Z,6.2873
2023-03-29T00:08:48.593Z,6.1324
2023-03-29T00:09:51.073Z,6.0624
2023-03-29T00:10:53.616Z,6.0735
2023-03-29T00:11:56.140Z,6.0845
2023-03-29T00:14:00.996Z,6.3428
2023-03-29T00:15:03.436Z,6.4158
2023-03-29T00:16:05.999Z,6.3848
2023-03-29T00:17:08.544Z,6.4342
2023-03-29T00:18:11.206Z,6.5215
2023-03-29T00:19:13.694Z,6.5320
2023-03-29T00:20:16.241Z,6.6325
2023-03-29T00:22:21.040Z,6.6323
2023-03-29T00:23:23.528Z,6.7243
2023-03-29T00:25:28.413Z,6.7687
2023-03-29T00:26:30.861Z,6.7790
2023-03-29T00:27:33.349Z,6.8212
2023-03-29T00:28:35.901Z,6.5972
2023-03-29T00:30:40.722Z,6.7655
2023-03-29T00:31:43.211Z,6.7664
2023-03-29T00:33:48.070Z,7.0594
2023-03-29T00:34:50.593Z,7.4277
2023-03-29T00:35:53.089Z,7.3123
2023-03-29T00:36:55.605Z,7.1288
2023-03-29T00:37:58.132Z,7.0985
2023-03-29T00:39:00.615Z,7.0983
2023-03-29T00:40:03.131Z,7.2614
2023-03-29T00:42:07.921Z,7.0041
2023-03-29T00:43:10.371Z,7.0241
2023-03-29T00:45:15.234Z,7.3840
2023-03-29T00:47:20.166Z,7.3896
2023-03-29T00:48:22.624Z,7.2805
2023-03-29T00:50:27.478Z,7.3140
2023-03-29T00:51:29.967Z,7.2253
2023-03-29T00:52:32.437Z,7.1784
2023-03-29T00:53:34.914Z,7.0424
2023-03-29T00:54:37.440Z,7.0001
2023-03-29T00:55:39.948Z,7.1187
2023-03-29T00:56:42.590Z,7.1990
2023-03-29T00:58:47.398Z,7.4376
2023-03-29T00:59:49.848Z,7.4632
2023-03-29T01:00:52.435Z,7.2580
2023-03-29T01:01:55.232Z,7.2274
2023-03-29T01:02:58.264Z,7.4920
2023-03-29T01:05:03.192Z,7.5900
2023-03-29T01:06:05.752Z,7.6421
2023-03-29T01:08:10.617Z,7.5729
2023-03-29T01:09:13.153Z,7.5185
2023-03-29T01:10:15.685Z,7.6183
2023-03-29T01:11:18.188Z,7.6053
2023-03-29T01:13:23.168Z,7.5786
2023-03-29T01:14:25.670Z,7.4384
2023-03-29T01:15:28.258Z,7.4605
2023-03-29T01:16:30.812Z,7.4561
2023-03-29T01:19:38.202Z,7.4067
2023-03-29T01:21:43.128Z,7.6238
2023-03-29T01:22:45.723Z,7.6236
2023-03-29T01:24:50.587Z,7.7070
2023-03-29T01:25:53.130Z,7.6467
2023-03-29T01:26:55.636Z,7.5782
2023-03-29T01:27:58.145Z,7.5578
2023-03-29T01:29:00.690Z,7.5738
2023-03-29T01:30:03.172Z,7.5414
2023-03-29T01:31:05.734Z,7.4914
2023-03-29T01:33:10.624Z,7.6446
2023-03-29T01:34:13.189Z,7.6989
2023-03-29T01:35:15.668Z,7.6555
2023-03-29T01:36:18.274Z,7.5578
2023-03-29T01:37:20.838Z,7.5097
2023-03-29T01:38:23.404Z,7.5439
2023-03-29T01:39:25.871Z,7.4445
2023-03-29T01:41:30.752Z,7.6162
2023-03-29T01:42:33.296Z,7.6335
2023-03-29T01:43:35.900Z,7.5410
2023-03-29T01:44:38.435Z,7.4868
2023-03-29T01:45:40.892Z,7.5156
2023-03-29T01:46:43.439Z,7.4762
2023-03-29T01:47:46.060Z,7.4855
2023-03-29T01:49:50.939Z,7.4330
2023-03-29T01:50:53.547Z,7.3589
2023-03-29T01:51:56.101Z,7.2969
2023-03-29T01:52:58.640Z,7.2436
2023-03-29T01:55:03.490Z,7.1532
2023-03-29T01:56:05.959Z,7.1872
2023-03-29T01:57:08.498Z,7.2929
2023-03-29T01:58:10.953Z,7.2154
2023-03-29T01:59:13.508Z,7.2454
2023-03-29T02:00:16.066Z,7.1788
2023-03-29T02:01:18.600Z,7.3011
2023-03-29T02:02:21.169Z,7.2263
2023-03-29T02:03:23.794Z,7.2000
2023-03-29T02:04:26.406Z,7.1252
2023-03-29T02:06:31.272Z,7.2156
2023-03-29T02:08:36.087Z,7.1439
2023-03-29T02:09:38.635Z,7.2751
2023-03-29T02:10:41.113Z,7.2244
2023-03-29T02:11:43.578Z,7.1618
2023-03-29T02:12:46.166Z,7.0628
2023-03-29T02:13:48.713Z,7.2091
2023-03-29T02:14:51.200Z,7.2259
2023-03-29T02:15:53.748Z,7.1942
2023-03-29T02:17:58.619Z,7.0218
2023-03-29T02:19:01.392Z,7.0375
2023-03-29T02:20:03.846Z,7.1010
2023-03-29T02:21:06.402Z,6.9760
2023-03-29T02:22:08.891Z,6.9083
2023-03-29T02:23:11.433Z,6.8675
2023-03-29T02:25:16.278Z,6.8906
2023-03-29T02:26:18.790Z,7.0584
2023-03-29T02:27:21.332Z,7.1422
2023-03-29T02:28:23.790Z,7.1601
2023-03-29T02:29:26.336Z,7.1330
2023-03-29T02:31:31.269Z,7.1090
2023-03-29T02:33:36.089Z,7.1389
2023-03-29T02:34:38.672Z,7.1666
2023-03-29T02:36:43.552Z,7.1853
2023-03-29T02:37:46.061Z,7.0939
2023-03-29T02:38:48.563Z,7.0684
2023-03-29T02:39:51.085Z,7.1382
2023-03-29T02:41:55.934Z,7.2730
2023-03-29T02:42:58.416Z,7.3087
2023-03-29T02:44:00.990Z,7.1004
2023-03-29T02:45:03.538Z,6.9051
2023-03-29T02:47:08.390Z,6.8555
2023-03-29T02:49:13.266Z,6.9518
2023-03-29T02:50:15.796Z,6.8626
2023-03-29T02:51:20.016Z,6.9423
2023-03-29T02:52:18.413Z,6.9473
2023-03-29T02:53:21.067Z,7.0876
2023-03-29T02:54:23.565Z,7.1551
2023-03-29T02:55:26.163Z,7.4056
2023-03-29T02:56:28.680Z,7.1799
2023-03-29T02:57:31.198Z,7.0390
2023-03-29T02:58:33.753Z,6.9818
2023-03-29T02:59:36.255Z,6.9289
2023-03-29T03:00:38.836Z,6.8954
2023-03-29T03:01:41.331Z,6.8944
2023-03-29T03:03:46.374Z,6.7794
2023-03-29T03:04:48.966Z,6.9144
2023-03-29T03:06:53.851Z,7.0619
2023-03-29T03:07:56.387Z,7.0895
2023-03-29T03:08:58.905Z,7.1496
2023-03-29T03:10:01.469Z,7.1651
2023-03-29T03:11:04.226Z,7.0783
2023-03-29T03:13:09.520Z,7.1912
2023-03-29T03:14:12.022Z,7.2576
2023-03-29T03:15:14.573Z,7.1731
2023-03-29T03:16:17.070Z,7.1214
2023-03-29T03:18:21.930Z,6.9768
2023-03-29T03:19:24.468Z,7.0132
2023-03-29T03:20:27.076Z,7.0232
2023-03-29T03:21:29.596Z,7.0525
2023-03-29T03:23:34.610Z,6.9907
2023-03-29T03:24:37.114Z,6.9457
2023-03-29T03:25:39.653Z,6.9526
2023-03-29T03:26:42.138Z,6.9497
2023-03-29T03:31:54.349Z,7.8943
2023-03-29T03:32:57.156Z,7.8351
2023-03-29T03:33:59.684Z,7.5258
2023-03-29T03:35:02.237Z,7.4937
2023-03-29T03:36:04.830Z,7.4664
2023-03-29T03:37:07.336Z,7.4403
2023-03-29T03:38:09.894Z,7.2333
2023-03-29T03:39:12.394Z,7.1237
2023-03-29T03:40:14.949Z,7.2635
2023-03-29T03:41:17.415Z,7.2509
2023-03-29T03:42:19.957Z,7.3611
2023-03-29T03:43:22.610Z,7.1822
2023-03-29T03:45:27.626Z,7.1437
2023-03-29T03:47:32.661Z,7.1498
2023-03-29T03:48:35.143Z,7.0462
2023-03-29T03:49:37.641Z,6.8729
2023-03-29T03:50:40.115Z,6.7531
2023-03-29T03:51:42.642Z,6.7325
2023-03-29T03:52:45.219Z,6.6783
2023-03-29T03:53:47.706Z,6.6600
2023-03-29T03:54:50.245Z,6.5995
2023-03-29T03:55:52.852Z,6.4891
2023-03-29T03:56:55.401Z,6.5494
2023-03-29T03:57:57.959Z,6.6081
2023-03-29T03:59:00.550Z,6.5965
2023-03-29T04:00:03.141Z,6.5127
2023-03-29T04:01:05.584Z,6.9495
2023-03-29T04:02:08.138Z,7.2070
2023-03-29T04:04:13.047Z,7.1647
2023-03-29T04:05:15.493Z,6.9821
2023-03-29T04:06:18.086Z,6.8364
2023-03-29T04:07:20.592Z,7.0674
2023-03-29T04:08:23.171Z,7.2950
2023-03-29T04:10:27.982Z,6.9339
2023-03-29T04:11:30.481Z,6.8433
2023-03-29T04:12:33.033Z,6.9085
2023-03-29T04:13:35.576Z,7.5513
2023-03-29T04:15:40.398Z,7.3276
2023-03-29T04:16:42.964Z,7.2492
2023-03-29T04:18:47.829Z,7.5116
2023-03-29T04:19:50.376Z,7.3217
2023-03-29T04:20:52.947Z,7.3630
2023-03-29T04:21:55.390Z,7.2976
2023-03-29T04:22:57.887Z,7.3165
2023-03-29T04:25:02.715Z,7.4165
2023-03-29T04:26:05.266Z,7.4577
2023-03-29T04:28:10.209Z,7.7270
2023-03-29T04:29:12.724Z,7.7811
2023-03-29T04:30:15.229Z,7.7844
2023-03-29T04:31:17.782Z,7.7464
2023-03-29T04:32:20.277Z,7.5441
2023-03-29T04:33:22.776Z,7.5841
2023-03-29T04:34:25.264Z,7.5330
2023-03-29T04:35:27.739Z,7.5952
2023-03-29T04:37:32.646Z,7.3913
2023-03-29T04:38:35.153Z,7.2898
2023-03-29T04:39:37.647Z,7.2860
2023-03-29T04:40:40.141Z,7.4275
2023-03-29T04:42:44.976Z,7.3388
2023-03-29T04:43:47.509Z,7.5158
2023-03-29T04:44:50.080Z,7.5427
2023-03-29T04:45:52.656Z,7.5074
2023-03-29T04:46:55.358Z,7.6898
2023-03-29T04:47:57.912Z,7.4834
2023-03-29T04:49:00.479Z,7.3390
2023-03-29T04:50:02.964Z,7.2799
2023-03-29T04:51:05.482Z,7.3814
2023-03-29T04:52:08.014Z,7.6963
2023-03-29T04:53:10.528Z,8.0196
2023-03-29T04:54:13.088Z,8.0852
2023-03-29T04:55:15.649Z,8.2580
2023-03-29T04:56:18.091Z,8.2876
2023-03-29T04:57:20.685Z,8.4558
2023-03-29T04:59:25.508Z,8.2828
2023-03-29T05:00:28.064Z,8.4049
2023-03-29T05:01:30.587Z,8.4318
2023-03-29T05:02:33.146Z,8.3375
2023-03-29T05:03:35.766Z,8.2475
2023-03-29T05:05:40.584Z,8.3049
2023-03-29T05:06:43.170Z,8.3398
2023-03-29T05:07:45.717Z,8.4388
2023-03-29T05:08:48.172Z,8.3183
2023-03-29T05:09:50.684Z,8.3532
2023-03-29T05:10:53.173Z,8.5439
2023-03-29T05:11:55.727Z,8.6196
2023-03-29T05:14:00.509Z,8.6343
2023-03-29T05:18:10.266Z,8.3627
2023-03-29T05:19:12.810Z,8.5666
2023-03-29T05:20:15.458Z,8.5698
2023-03-29T05:22:20.300Z,8.4611
2023-03-29T05:24:25.073Z,8.3864
2023-03-29T05:25:27.865Z,8.3911
2023-03-29T05:26:30.363Z,8.3293
2023-03-29T05:27:33.021Z,8.2912
2023-03-29T05:28:35.576Z,8.2469
2023-03-29T05:29:38.112Z,8.3204
2023-03-29T05:30:40.599Z,8.3280
2023-03-29T05:31:43.173Z,8.4468
2023-03-29T05:32:45.739Z,8.5815
2023-03-29T05:33:48.188Z,8.5306
2023-03-29T05:35:53.114Z,8.5706
2023-03-29T05:36:55.571Z,8.5809
2023-03-29T05:37:58.092Z,8.1912
2023-03-29T05:40:05.825Z,8.0503
2023-03-29T05:41:04.589Z,8.2819
2023-03-29T05:43:09.596Z,8.4125
2023-03-29T05:44:12.139Z,8.4751
2023-03-29T05:45:14.677Z,8.4802
2023-03-29T05:46:17.234Z,8.4628
2023-03-29T05:47:19.944Z,8.2679
2023-03-29T05:49:24.812Z,8.2010
2023-03-29T05:50:27.330Z,8.1880
2023-03-29T05:52:32.204Z,8.2588
2023-03-29T05:53:34.684Z,8.1912
2023-03-29T05:55:39.466Z,8.0291
2023-03-29T05:56:41.995Z,8.0339
2023-03-29T05:58:46.845Z,8.1329
2023-03-29T05:59:49.283Z,8.0591
2023-03-29T06:00:51.803Z,8.1737
2023-03-29T06:01:54.383Z,8.0722
2023-03-29T06:03:03.654Z,8.0783
2023-03-29T06:05:03.156Z,8.0678
2023-03-29T06:06:05.743Z,8.1165
2023-03-29T06:07:08.192Z,8.1388
2023-03-29T06:08:10.742Z,8.0488
2023-03-29T06:09:13.263Z,8.0571
2023-03-29T06:10:15.757Z,8.0159
2023-03-29T06:11:18.302Z,8.2708
2023-03-29T06:20:39.535Z,8.7306
2023-03-29T06:22:44.328Z,8.9168
2023-03-29T06:23:46.765Z,9.0274
2023-03-29T06:24:49.410Z,8.9845
2023-03-29T06:25:51.871Z,9.0129
2023-03-29T06:27:56.795Z,9.0269
2023-03-29T06:28:59.247Z,9.0423
2023-03-29T06:30:01.744Z,9.0143
2023-03-29T06:31:04.468Z,8.9857
2023-03-29T06:32:07.596Z,8.9641
2023-03-29T06:34:12.371Z,8.9136
2023-03-29T06:35:14.855Z,9.0671
2023-03-29T06:37:19.712Z,9.0669
2023-03-29T06:38:22.148Z,9.1398
2023-03-29T06:39:24.621Z,9.2044
2023-03-29T06:40:27.078Z,9.1508
2023-03-29T06:41:29.542Z,9.1779
2023-03-29T06:42:31.961Z,9.2563
2023-03-29T06:44:36.661Z,9.2683
2023-03-29T06:46:41.516Z,9.4415
2023-03-29T06:47:43.986Z,9.3778
2023-03-29T06:48:46.427Z,9.3877
2023-03-29T06:49:48.869Z,9.3856
2023-03-29T06:50:51.369Z,9.3826
2023-03-29T06:52:56.153Z,9.5058
2023-03-29T06:53:58.586Z,9.3320
2023-03-29T06:55:01.110Z,9.2836
2023-03-29T06:56:03.559Z,9.4305
2023-03-29T06:57:06.058Z,9.3948
2023-03-29T06:58:08.514Z,9.4224
2023-03-29T06:59:10.969Z,9.4722
2023-03-29T07:00:13.444Z,9.5377
2023-03-29T07:01:16.011Z,9.5727
2023-03-29T07:02:18.486Z,9.6008
2023-03-29T07:04:23.270Z,9.6130
2023-03-29T07:05:25.726Z,9.6372
2023-03-29T07:06:28.164Z,9.6031
2023-03-29T07:07:30.617Z,9.5785
2023-03-29T07:08:33.050Z,9.5254
2023-03-29T07:09:35.559Z,9.4932
2023-03-29T07:10:38.031Z,9.0660
2023-03-29T07:12:42.770Z,8.2765
2023-03-29T07:13:45.193Z,8.3515
2023-03-29T07:14:47.647Z,8.3324
2023-03-29T07:15:50.105Z,8.2223
2023-03-29T07:17:54.895Z,7.8128
2023-03-29T07:18:57.338Z,7.8368
2023-03-29T07:19:58.420Z,7.7363
2023-03-29T07:22:03.161Z,7.8218
2023-03-29T07:23:05.571Z,7.8929
2023-03-29T07:24:08.063Z,8.0692
2023-03-29T07:25:10.540Z,8.2177
2023-03-29T07:26:13.026Z,8.2572
2023-03-29T07:27:15.413Z,8.3101
2023-03-29T07:28:17.879Z,8.1752
2023-03-29T07:29:20.359Z,8.1680
2023-03-29T07:30:22.821Z,8.3808
2023-03-29T07:31:25.278Z,8.2509
2023-03-29T07:32:27.825Z,8.2155
2023-03-29T07:34:32.656Z,8.3122
2023-03-29T07:35:35.193Z,8.2273
2023-03-29T07:37:39.922Z,8.2383
2023-03-29T07:38:42.330Z,8.2568
2023-03-29T07:39:44.773Z,8.2650
2023-03-29T07:40:47.233Z,8.2088
2023-03-29T07:42:52.635Z,8.3341
2023-03-29T07:43:55.039Z,8.7343
2023-03-29T07:44:57.477Z,8.6488
2023-03-29T07:45:59.950Z,8.4079
2023-03-29T07:47:02.352Z,8.4825
2023-03-29T07:48:04.932Z,8.6753
2023-03-29T07:49:07.352Z,8.9092
2023-03-29T07:50:09.795Z,9.2044
2023-03-29T07:51:12.206Z,9.0778
2023-03-29T07:52:14.627Z,9.0030
2023-03-29T07:53:17.055Z,9.0522
2023-03-29T07:54:19.538Z,9.0455
2023-03-29T07:55:22.035Z,8.9572
2023-03-29T07:56:24.458Z,9.0072
2023-03-29T07:57:27.219Z,9.1360
2023-03-29T07:59:32.063Z,9.2777
2023-03-29T08:00:34.555Z,9.4450
2023-03-29T08:02:39.170Z,9.4354
2023-03-29T08:03:41.654Z,9.3111
2023-03-29T08:05:46.369Z,9.2626
2023-03-29T08:06:48.774Z,9.2647
2023-03-29T08:07:51.236Z,9.2418
2023-03-29T08:08:53.633Z,9.2365
2023-03-29T08:09:56.031Z,9.2720
2023-03-29T08:10:58.476Z,9.4600
2023-03-29T08:12:00.914Z,9.5256
2023-03-29T08:13:03.330Z,9.5605
2023-03-29T08:14:05.774Z,9.3738
2023-03-29T08:16:10.442Z,9.0520
2023-03-29T08:17:12.941Z,8.9498
2023-03-29T08:19:17.711Z,9.0587
2023-03-29T08:20:20.173Z,9.0192
2023-03-29T08:22:24.843Z,8.9773
2023-03-29T08:24:29.545Z,9.0604
2023-03-29T08:25:32.044Z,9.0503
2023-03-29T08:26:34.431Z,8.9506
2023-03-29T08:27:36.902Z,8.9235
2023-03-29T08:29:41.824Z,8.9443
2023-03-29T08:31:46.526Z,9.2172
2023-03-29T08:32:51.078Z,9.3765
2023-03-29T08:33:51.082Z,9.5752
2023-03-29T08:35:55.825Z,9.5615
2023-03-29T08:38:00.507Z,9.5783
2023-03-29T08:39:02.979Z,9.6077
2023-03-29T08:40:05.372Z,9.6748
2023-03-29T08:41:07.839Z,9.6487
2023-03-29T08:42:10.218Z,9.7681
2023-03-29T08:43:12.676Z,9.7448
2023-03-29T08:44:15.056Z,10.0736
2023-03-29T08:46:19.802Z,9.9813
2023-03-29T08:47:22.247Z,10.3614
2023-03-29T08:49:26.931Z,10.3634
2023-03-29T08:51:31.524Z,10.4917
2023-03-29T08:52:33.993Z,10.2930
2023-03-29T08:53:36.391Z,10.3204
2023-03-29T08:54:38.900Z,10.5970
2023-03-29T08:55:41.386Z,10.6876
2023-03-29T08:57:46.019Z,10.6415
2023-03-29T08:58:48.384Z,10.8124
2023-03-29T08:59:50.810Z,10.9413
2023-03-29T09:00:53.233Z,10.9302
2023-03-29T09:02:58.313Z,11.1482
2023-03-29T09:04:00.902Z,11.1511
2023-03-29T09:06:05.568Z,11.1753
2023-03-29T09:08:10.351Z,11.3426
2023-03-29T09:09:12.776Z,11.5646
2023-03-29T09:11:17.529Z,11.3714
2023-03-29T09:12:19.989Z,11.3895
2023-03-29T09:13:22.387Z,11.3544
2023-03-29T09:14:24.835Z,11.2682
2023-03-29T09:15:27.260Z,11.4357
2023-03-29T09:16:29.763Z,11.1751
2023-03-29T09:17:32.218Z,11.1231
2023-03-29T09:18:34.688Z,10.9663
2023-03-29T09:19:37.072Z,11.1898
2023-03-29T09:20:39.537Z,11.0014
2023-03-29T09:21:41.986Z,10.7420
2023-03-29T09:22:44.376Z,10.9314
2023-03-29T09:24:49.110Z,10.8993
2023-03-29T09:25:54.202Z,10.8444
2023-03-29T09:26:52.221Z,10.5628
2023-03-29T09:27:54.675Z,10.8082
2023-03-29T09:28:57.173Z,11.0441
2023-03-29T09:29:59.560Z,11.0180
2023-03-29T09:31:02.270Z,10.9895
2023-03-29T09:32:04.868Z,10.9566
2023-03-29T09:33:07.363Z,11.0103
2023-03-29T09:34:09.781Z,10.8547
2023-03-29T09:36:14.604Z,10.4599
2023-03-29T09:37:17.004Z,10.4320
2023-03-29T09:38:19.516Z,10.3735
2023-03-29T09:39:21.942Z,10.4578
2023-03-29T09:41:26.646Z,10.5365
2023-03-29T09:42:29.073Z,10.5257
2023-03-29T09:43:31.536Z,10.5962
2023-03-29T09:44:33.936Z,10.6991
2023-03-29T09:46:38.651Z,10.6329
2023-03-29T09:47:41.141Z,10.5697
2023-03-29T09:48:43.597Z,10.9348
2023-03-29T09:49:46.102Z,10.9819
2023-03-29T09:50:48.530Z,10.9533
2023-03-29T09:52:53.268Z,11.0580
2023-03-29T09:53:55.752Z,11.1915
2023-03-29T09:56:00.533Z,11.0338
2023-03-29T09:57:03.058Z,11.0197
2023-03-29T09:58:05.468Z,11.1271
2023-03-29T09:59:07.918Z,11.1202
2023-03-29T10:00:10.352Z,11.2652
2023-03-29T10:01:12.856Z,11.4649
2023-03-29T10:03:17.504Z,11.7887
2023-03-29T10:04:19.981Z,11.7889
2023-03-29T10:06:24.638Z,11.7615
2023-03-29T10:07:27.082Z,11.7849
2023-03-29T10:08:29.483Z,11.7035
2023-03-29T10:09:32.074Z,11.9629
2023-03-29T10:10:34.481Z,11.8900
2023-03-29T10:11:37.022Z,12.0253
2023-03-29T10:12:39.454Z,12.3610
2023-03-29T10:13:41.834Z,12.1971
2023-03-29T10:15:46.494Z,12.3861
2023-03-29T10:16:49.013Z,12.6194
2023-03-29T10:18:53.638Z,12.1136
2023-03-29T10:19:56.061Z,12.4512
2023-03-29T10:20:58.461Z,12.6761
2023-03-29T10:22:00.867Z,12.9343
2023-03-29T10:23:03.307Z,13.3288
2023-03-29T10:24:05.681Z,12.8485
2023-03-29T10:25:08.087Z,12.8347
2023-03-29T10:27:12.740Z,12.7634
2023-03-29T10:28:15.119Z,12.7712
2023-03-29T10:29:17.554Z,12.9284
2023-03-29T10:30:19.945Z,13.1088
2023-03-29T10:31:22.378Z,13.2078
2023-03-29T10:32:24.857Z,13.2031
2023-03-29T10:33:27.197Z,13.0003
2023-03-29T10:34:29.670Z,12.9463
2023-03-29T10:35:32.112Z,13.4155
2023-03-29T10:36:34.510Z,13.3976
2023-03-29T10:37:36.864Z,13.5210
2023-03-29T10:39:41.486Z,14.7976
2023-03-29T10:40:43.801Z,14.1718
2023-03-29T10:41:46.187Z,14.1033
2023-03-29T10:42:48.527Z,14.7086
2023-03-29T10:43:51.149Z,14.9439
2023-03-29T10:44:54.337Z,13.7047
2023-03-29T16:02:32.911Z,16.6531
2023-03-29T16:03:33.139Z,16.7044
2023-03-29T16:04:33.414Z,16.7704
2023-03-29T16:05:33.618Z,16.6657
2023-03-29T16:06:33.795Z,16.4954
2023-03-29T16:07:34.047Z,16.1265
2023-03-29T16:08:34.275Z,15.9776
2023-03-29T16:09:34.445Z,16.1534
2023-03-29T16:10:34.653Z,16.0584
2023-03-29T16:11:34.854Z,16.0725
2023-03-29T16:12:35.045Z,16.0014
2023-03-29T16:13:35.271Z,15.5964
2023-03-29T16:14:35.404Z,15.1435
2023-03-29T16:15:35.650Z,15.0489
2023-03-29T16:16:36.987Z,14.7562
2023-03-29T16:17:37.248Z,14.6184
2023-03-29T16:18:37.463Z,14.4950
2023-03-29T16:19:37.749Z,14.3825
2023-03-29T16:21:37.987Z,14.1906
2023-03-29T16:22:38.239Z,14.1737
2023-03-29T16:23:38.442Z,14.3219
2023-03-29T16:24:38.638Z,14.2231
2023-03-29T16:25:38.852Z,14.2340
2023-03-29T16:26:39.124Z,14.2921
2023-03-29T16:27:39.288Z,14.3261
2023-03-29T16:28:39.498Z,14.2820
2023-03-29T16:29:39.700Z,14.1507
2023-03-29T16:30:39.906Z,14.1673
2023-03-29T16:31:40.331Z,14.2211
2023-03-29T16:32:40.750Z,14.1406
2023-03-29T16:33:41.003Z,14.0481
2023-03-29T16:34:41.514Z,14.0777
2023-03-29T16:35:42.016Z,14.0682
2023-03-29T16:36:42.170Z,13.9351
2023-03-29T16:37:42.391Z,13.7482
2023-03-29T16:38:42.585Z,13.6483
2023-03-29T16:39:42.825Z,13.5194
2023-03-29T16:40:43.005Z,13.4110
2023-03-29T16:41:43.198Z,13.1872
2023-03-29T16:42:43.419Z,13.0795
2023-03-29T16:43:43.615Z,13.0491
2023-03-29T16:44:43.847Z,12.9849
2023-03-29T16:45:44.026Z,12.9410
2023-03-29T16:46:44.234Z,12.8484
2023-03-29T16:47:44.567Z,12.8024
2023-03-29T16:48:44.857Z,12.8023
2023-03-29T16:49:45.953Z,12.7051
2023-03-29T16:50:46.228Z,12.6790
2023-03-29T16:51:46.451Z,12.7095
2023-03-29T16:52:46.702Z,12.6567
2023-03-29T16:53:46.915Z,12.6029
2023-03-29T16:54:47.133Z,12.5792
2023-03-29T16:55:47.352Z,12.5975
2023-03-29T16:56:47.593Z,12.5681
2023-03-29T16:57:47.757Z,12.4461
2023-03-29T16:58:48.022Z,12.5260
2023-03-29T16:59:48.288Z,12.5475
2023-03-29T17:00:48.697Z,12.3948
2023-03-29T17:01:48.926Z,12.4300
2023-03-29T17:02:49.229Z,12.6881
2023-03-29T17:03:49.532Z,12.5859
2023-03-29T17:04:49.931Z,12.4983
2023-03-29T17:05:50.258Z,12.5709
2023-03-29T17:06:50.694Z,12.5577
2023-03-29T17:07:50.899Z,12.6319
2023-03-29T17:08:51.136Z,12.5738
2023-03-29T17:09:51.371Z,12.3685
2023-03-29T17:10:51.596Z,12.4668
2023-03-29T17:11:52.819Z,12.3740
2023-03-29T17:12:53.164Z,12.3619
2023-03-29T17:13:53.499Z,12.2703
2023-03-29T17:14:53.825Z,12.2940
2023-03-29T17:15:54.109Z,12.3431
2023-03-29T17:16:54.339Z,12.3254
2023-03-29T17:17:54.591Z,12.2280
2023-03-29T17:18:54.837Z,12.0530
2023-03-29T17:19:55.192Z,12.1763
2023-03-29T17:20:55.460Z,12.2363
2023-03-29T17:21:55.667Z,12.1604
2023-03-29T17:22:55.973Z,12.1621
2023-03-29T17:23:56.240Z,12.1217
2023-03-29T17:24:56.573Z,12.1000
2023-03-29T17:25:56.778Z,12.0963
2023-03-29T17:26:57.048Z,11.9247
2023-03-29T17:27:57.293Z,12.0403
2023-03-29T17:28:57.503Z,12.2952
2023-03-29T17:30:57.889Z,12.1934
2023-03-29T17:31:58.082Z,12.0607
2023-03-29T17:32:58.299Z,12.1595
2023-03-29T17:33:58.565Z,12.1699
2023-03-29T17:34:58.792Z,12.0321
2023-03-29T17:35:59.288Z,11.9290
2023-03-29T17:36:59.743Z,11.9823
2023-03-29T17:37:59.957Z,11.9232
2023-03-29T17:39:02.364Z,12.2012
2023-03-29T17:40:00.616Z,12.0400
2023-03-29T17:41:00.930Z,11.8801
2023-03-29T17:42:01.168Z,11.8908
2023-03-29T17:43:01.592Z,11.8959
2023-03-29T17:44:01.964Z,11.6693
2023-03-29T17:45:02.205Z,11.7387
2023-03-29T17:46:02.611Z,11.7068
2023-03-29T17:47:03.361Z,11.5771
2023-03-29T17:48:06.246Z,11.5517
2023-03-29T17:49:04.656Z,11.6027
2023-03-29T17:50:05.272Z,11.5501
2023-03-29T17:51:05.625Z,11.5691
2023-03-29T17:52:05.834Z,11.6660
2023-03-29T17:53:06.179Z,11.7633
2023-03-29T17:54:06.480Z,11.7029
2023-03-29T17:55:06.664Z,11.8186
2023-03-29T17:56:06.942Z,11.8121
2023-03-29T17:57:07.171Z,11.7054
2023-03-29T17:58:07.406Z,11.7168
2023-03-29T17:59:07.642Z,11.5256
2023-03-29T18:00:07.938Z,11.3815
2023-03-29T18:01:08.519Z,11.4261
2023-03-29T18:02:08.841Z,11.5263
2023-03-29T18:03:09.071Z,11.4801
2023-03-29T18:04:09.476Z,11.4616
2023-03-29T18:05:09.700Z,11.4644
2023-03-29T18:06:09.916Z,11.4474
2023-03-29T18:07:10.093Z,11.4306
2023-03-29T18:08:10.328Z,11.4677
2023-03-29T18:09:10.520Z,11.4952
2023-03-29T18:10:10.951Z,11.5353
2023-03-29T18:11:11.231Z,11.5677
2023-03-29T18:12:11.481Z,11.5437
2023-03-29T18:13:11.832Z,11.5454
2023-03-29T18:14:12.053Z,11.5105
2023-03-29T18:15:12.251Z,11.3923
2023-03-29T18:16:12.487Z,11.5962
2023-03-29T18:17:12.734Z,11.7323
2023-03-29T18:18:12.910Z,11.6892
2023-03-29T18:19:13.182Z,11.6211
2023-03-29T18:20:13.428Z,11.6977
2023-03-29T18:21:13.715Z,11.7411
2023-03-29T18:22:14.555Z,11.8174
2023-03-29T18:23:15.074Z,11.8648
2023-03-29T18:24:15.478Z,11.8273
2023-03-29T18:25:15.795Z,11.7769
2023-03-29T18:26:16.272Z,11.7292
2023-03-29T18:27:16.536Z,11.5641
2023-03-29T18:28:16.729Z,11.6120
2023-03-29T18:29:17.014Z,11.5116
2023-03-29T18:30:17.292Z,11.5110
2023-03-29T18:31:17.739Z,11.5373
2023-03-29T18:32:18.047Z,11.7042
2023-03-29T18:33:18.328Z,11.8467
2023-03-29T18:34:18.541Z,11.7672
2023-03-29T18:35:18.818Z,11.6866
2023-03-29T18:36:19.074Z,11.7793
2023-03-29T18:37:19.643Z,11.6412
2023-03-29T18:38:19.933Z,11.5546
2023-03-29T18:39:20.171Z,11.5769
2023-03-29T18:40:20.373Z,11.6491
2023-03-29T18:41:20.666Z,11.6480
2023-03-29T18:43:21.011Z,11.7270
2023-03-29T18:44:21.224Z,11.7481
2023-03-29T18:45:21.650Z,11.8526
2023-03-29T18:46:22.110Z,11.8187
2023-03-29T18:47:22.462Z,11.5893
2023-03-29T18:48:22.859Z,11.2837
2023-03-29T18:49:23.072Z,11.4300
2023-03-29T18:50:23.297Z,11.4598
2023-03-29T18:51:23.493Z,11.2841
2023-03-29T18:53:23.794Z,11.0516
2023-03-29T18:54:24.114Z,11.2514
2023-03-29T18:55:24.364Z,11.1900
2023-03-29T18:56:24.595Z,10.9801
2023-03-29T18:57:24.962Z,10.9011
2023-03-29T18:58:25.193Z,12.0566
2023-03-29T18:59:25.458Z,12.3222
2023-03-29T19:00:25.723Z,12.0638
2023-03-29T19:01:25.972Z,12.0126
2023-03-29T19:02:26.263Z,12.3080
2023-03-29T19:03:26.607Z,12.2101
2023-03-29T19:04:27.025Z,12.2238
2023-03-29T19:05:27.340Z,12.1934
2023-03-29T19:06:27.561Z,12.3005
2023-03-29T19:07:27.874Z,12.2352
2023-03-29T19:08:28.229Z,12.2944
2023-03-29T19:09:28.507Z,12.2182
2023-03-29T19:10:28.813Z,12.2188
2023-03-29T19:11:29.176Z,12.1574
2023-03-29T19:12:29.487Z,12.1444
2023-03-29T19:13:29.764Z,12.0028
2023-03-29T19:14:30.078Z,11.6860
2023-03-29T19:15:30.437Z,11.7025
2023-03-29T19:16:30.755Z,11.3658
2023-03-29T19:17:31.074Z,10.9596
2023-03-29T19:18:31.390Z,10.7052
2023-03-29T19:19:31.663Z,10.5846
2023-03-29T19:20:31.922Z,10.5479
2023-03-29T19:21:32.307Z,10.5795
2023-03-29T19:23:32.748Z,10.8019
2023-03-29T19:24:32.977Z,10.7678
2023-03-29T19:25:33.265Z,10.8326
2023-03-29T19:26:33.614Z,10.9097
2023-03-29T19:27:33.885Z,10.9700
2023-03-29T19:28:34.148Z,10.9471
2023-03-29T19:29:34.410Z,11.1076
2023-03-29T19:30:34.697Z,11.1902
2023-03-29T19:31:35.078Z,11.6001
2023-03-29T19:32:35.340Z,11.6277
2023-03-29T19:33:35.612Z,11.6872
2023-03-29T19:34:35.915Z,12.1507
2023-03-29T19:35:36.343Z,12.2810
2023-03-29T19:36:36.589Z,11.9539
2023-03-29T19:37:36.921Z,12.2382
2023-03-29T19:38:37.162Z,12.2512
2023-03-29T19:39:37.459Z,11.9850
2023-03-29T19:40:37.774Z,11.9324
2023-03-29T19:41:39.441Z,11.9177
2023-03-29T19:42:38.526Z,11.8427
2023-03-29T19:43:38.866Z,11.7411
2023-03-29T19:44:39.158Z,11.7018
2023-03-29T19:45:39.432Z,11.5807
2023-03-29T19:46:39.737Z,11.5007
2023-03-29T19:47:40.114Z,11.5970
2023-03-29T19:48:40.454Z,11.4417
2023-03-29T19:49:40.799Z,11.4273
2023-03-29T19:50:41.195Z,11.3761
2023-03-29T19:51:41.520Z,11.2869
2023-03-29T19:52:41.754Z,11.2179
2023-03-29T19:53:42.056Z,11.2357
2023-03-29T19:54:42.357Z,11.3439
2023-03-29T19:55:42.652Z,11.3591
2023-03-29T19:56:43.023Z,11.1859
2023-03-29T19:57:43.393Z,11.1212
2023-03-29T19:58:43.678Z,11.2318
2023-03-29T19:59:44.025Z,11.3001
2023-03-29T20:00:44.285Z,11.4825
2023-03-29T20:01:44.584Z,11.3358
2023-03-29T20:02:44.901Z,11.3248
2023-03-29T20:03:45.326Z,11.3314
2023-03-29T20:04:45.698Z,11.2593
2023-03-29T20:05:46.047Z,11.2318
2023-03-29T20:06:46.400Z,11.1605
2023-03-29T20:08:47.094Z,11.1709